Time;durP1;ratioP1;P1;durP2;ratioP2;P2;SDS_P1;SDS_P2;PMS_P1;PMS_P2;Temp;Humidity;BMP_temperature;BMP_pressure;BME280_temperature;BME280_humidity;BME280_pressure;Samples;Min_cycle;Max_cycle;Signal;HPM_P1;HPM_P2
2023/05/05 00:00:14;;;;;;;0.00;0.00;;;;;;;9.51;82.70;100587.09;5010465;28;20207;-77
2023/05/05 00:02:40;;;;;;;0.00;0.00;;;;;;;9.60;82.22;100575.50;5009255;28;20204;-77
2023/05/05 00:05:06;;;;;;;0.00;0.00;;;;;;;9.67;82.35;100581.34;5010324;28;20189;-77
2023/05/05 00:07:31;;;;;;;0.00;0.00;;;;;;;9.67;82.67;100579.44;5025596;28;20191;-77
2023/05/05 00:09:56;;;;;;;0.00;0.00;;;;;;;9.65;82.47;100575.38;5011311;28;20546;-77
2023/05/05 00:12:22;;;;;;;0.00;0.00;;;;;;;9.64;82.24;100576.50;5012564;28;20630;-77
2023/05/05 00:14:47;;;;;;;1.07;1.07;;;;;;;9.59;82.47;100574.69;5029057;28;20279;-77
2023/05/05 00:17:13;;;;;;;0.00;0.00;;;;;;;9.62;82.92;100581.44;5014061;28;20235;-77
2023/05/05 00:19:39;;;;;;;0.50;0.50;;;;;;;9.58;82.91;100577.72;5013983;28;20184;-77
2023/05/05 00:22:05;;;;;;;0.00;0.00;;;;;;;9.41;83.30;100562.75;5013868;28;20223;-76
2023/05/05 00:24:30;;;;;;;0.00;0.00;;;;;;;9.40;83.96;100569.31;5013600;28;20181;-77
2023/05/05 00:26:56;;;;;;;0.00;0.00;;;;;;;9.47;83.61;100567.00;5013948;28;20195;-77
2023/05/05 00:29:21;;;;;;;0.00;0.00;;;;;;;9.19;84.08;100563.41;5013781;28;20267;-77
2023/05/05 00:31:46;;;;;;;0.00;0.00;;;;;;;9.09;84.97;100565.47;5013681;28;20207;-77
2023/05/05 00:34:11;;;;;;;0.93;0.93;;;;;;;9.23;85.09;100566.31;5012427;28;20548;-77
2023/05/05 00:36:37;;;;;;;0.00;0.00;;;;;;;9.25;84.63;100553.19;5013312;28;20186;-77
2023/05/05 00:39:02;;;;;;;0.00;0.00;;;;;;;8.99;85.36;100550.13;5013830;28;20184;-76
2023/05/05 00:41:27;;;;;;;0.00;0.00;;;;;;;9.05;85.73;100550.84;5013684;28;20261;-77
2023/05/05 00:43:53;;;;;;;0.00;0.00;;;;;;;9.14;85.39;100549.06;5013769;28;20183;-76
2023/05/05 00:46:24;;;;;;;0.00;0.00;;;;;;;8.95;85.58;100538.19;5013275;28;20246;-76
2023/05/05 00:48:50;;;;;;;0.00;0.00;;;;;;;8.83;85.87;100544.13;5013553;28;20216;-77
2023/05/05 00:51:17;;;;;;;0.00;0.00;;;;;;;8.79;85.31;100539.53;5013401;28;20231;-77
2023/05/05 00:53:43;;;;;;;0.00;0.00;;;;;;;8.79;85.83;100545.00;5013326;28;20217;-76
2023/05/05 00:56:13;;;;;;;0.00;0.00;;;;;;;8.77;85.60;100536.31;5011578;28;20541;-77
2023/05/05 00:58:40;;;;;;;0.00;0.00;;;;;;;8.66;84.49;100532.94;5013222;28;20192;-76
2023/05/05 01:01:06;;;;;;;0.00;0.00;;;;;;;8.77;84.13;100531.66;5013219;28;20204;-76
2023/05/05 01:03:31;;;;;;;0.00;0.00;;;;;;;8.75;83.53;100533.88;5011930;28;20195;-76
2023/05/05 01:06:03;;;;;;;0.00;0.00;;;;;;;8.68;83.06;100517.13;5012619;28;20643;-76
2023/05/05 01:09:00;;;;;;;0.30;0.30;;;;;;;8.61;82.90;100517.50;5013247;28;20192;-76
2023/05/05 01:11:34;;;;;;;0.10;0.10;;;;;;;8.59;83.17;100524.34;5005959;28;20216;-76
2023/05/05 01:14:20;;;;;;;0.07;0.07;;;;;;;8.40;83.96;100521.63;5013219;28;20188;-76
2023/05/05 01:16:56;;;;;;;0.00;0.00;;;;;;;8.33;84.02;100527.41;5012400;28;20347;-76
2023/05/05 01:19:53;;;;;;;0.33;0.33;;;;;;;8.37;84.77;100522.22;5028275;28;20274;-76
2023/05/05 01:22:23;;;;;;;0.27;0.27;;;;;;;8.26;85.31;100518.81;5026552;28;20203;-76
2023/05/05 01:25:13;;;;;;;0.00;0.00;;;;;;;8.28;85.37;100519.31;5012649;28;20660;-76
2023/05/05 01:28:05;;;;;;;0.37;0.37;;;;;;;8.25;85.61;100517.19;5012633;28;20657;-76
2023/05/05 01:30:59;;;;;;;0.00;0.00;;;;;;;8.27;85.29;100519.63;5012718;28;20188;-76
2023/05/05 01:33:30;;;;;;;0.00;0.00;;;;;;;8.25;85.33;100519.91;5012638;28;20212;-76
2023/05/05 01:36:03;;;;;;;0.93;0.37;;;;;;;8.32;85.41;100517.63;5012087;28;20184;-76
2023/05/05 01:38:41;;;;;;;0.00;0.00;;;;;;;8.29;85.61;100512.78;5012729;28;20189;-76
2023/05/05 01:41:17;;;;;;;0.00;0.00;;;;;;;8.29;85.63;100523.66;5012639;28;20208;-76
2023/05/05 01:43:45;;;;;;;0.97;0.93;;;;;;;8.34;85.84;100512.72;5012523;28;20184;-76
2023/05/05 01:46:12;;;;;;;0.17;0.17;;;;;;;8.31;85.64;100517.91;5012168;28;20262;-76
2023/05/05 01:48:39;;;;;;;0.00;0.00;;;;;;;8.24;86.02;100518.28;5012385;28;20203;-76
2023/05/05 01:51:05;;;;;;;0.27;0.27;;;;;;;8.11;86.55;100513.59;5012369;28;20208;-76
2023/05/05 01:53:32;;;;;;;2.27;0.77;;;;;;;8.01;87.46;100509.06;5012231;28;20686;-76
2023/05/05 01:55:58;;;;;;;0.00;0.00;;;;;;;8.05;87.48;100520.97;5011698;28;20203;-76
2023/05/05 01:58:25;;;;;;;2.43;0.27;;;;;;;8.21;87.15;100520.78;5012082;28;20188;-76
2023/05/05 02:00:53;;;;;;;0.00;0.00;;;;;;;8.07;87.87;100515.25;5012279;28;20212;-76
2023/05/05 02:03:21;;;;;;;0.00;0.00;;;;;;;8.07;87.87;100515.25;5012166;28;20710;-76
2023/05/05 02:05:49;;;;;;;0.00;0.00;;;;;;;8.07;88.35;100516.06;5026838;28;20223;-76
2023/05/05 02:08:15;;;;;;;0.00;0.00;;;;;;;8.11;87.99;100516.31;5012226;28;20233;-76
2023/05/05 02:10:41;;;;;;;3.40;3.20;;;;;;;8.12;87.90;100519.84;5010810;28;20234;-76
2023/05/05 02:13:11;;;;;;;0.10;0.10;;;;;;;8.09;88.54;100506.78;5012046;28;20208;-76
2023/05/05 02:15:38;;;;;;;0.00;0.00;;;;;;;8.02;88.62;100507.16;5011436;28;20276;-76
2023/05/05 02:18:05;;;;;;;0.83;0.77;;;;;;;7.88;88.87;100501.63;5011893;28;20187;-76
2023/05/05 02:20:31;;;;;;;0.00;0.00;;;;;;;7.84;89.85;100499.78;5010501;28;20195;-76
2023/05/05 02:22:57;;;;;;;0.20;0.20;;;;;;;7.85;89.95;100502.22;5011855;28;20441;-76
2023/05/05 02:25:28;;;;;;;0.10;0.10;;;;;;;7.84;90.17;100494.34;5011207;28;20195;-76
2023/05/05 02:27:56;;;;;;;0.50;0.43;;;;;;;7.72;90.96;100490.13;5011852;28;20639;-76
2023/05/05 02:30:23;;;;;;;0.57;0.57;;;;;;;7.75;91.18;100500.44;5010875;28;20206;-76
2023/05/05 02:33:04;;;;;;;0.37;0.20;;;;;;;7.69;91.93;100498.88;5025934;28;20302;-76
2023/05/05 02:35:36;;;;;;;0.40;0.27;;;;;;;7.61;92.24;100493.25;5010817;28;20184;-76
2023/05/05 02:38:04;;;;;;;1.10;1.03;;;;;;;7.58;92.81;100499.28;5010305;28;20195;-76
2023/05/05 02:40:32;;;;;;;2.77;2.57;;;;;;;7.68;93.12;100501.91;5011465;28;20180;-76
2023/05/05 02:43:06;;;;;;;0.10;0.10;;;;;;;7.61;93.29;100496.78;5011386;28;20535;-76
2023/05/05 02:45:31;;;;;;;0.00;0.00;;;;;;;7.54;94.09;100496.34;5010900;28;20701;-76
2023/05/05 02:48:01;;;;;;;0.73;0.40;;;;;;;7.46;94.61;100492.34;5011546;28;20184;-76
2023/05/05 02:50:27;;;;;;;0.10;0.10;;;;;;;7.41;95.61;100494.31;5010095;28;20196;-76
2023/05/05 02:52:52;;;;;;;0.00;0.00;;;;;;;7.29;96.31;100486.56;5011209;28;20250;-76
2023/05/05 02:55:18;;;;;;;0.10;0.10;;;;;;;7.22;97.07;100491.50;5010456;28;20184;-76
2023/05/05 02:57:50;;;;;;;1.07;1.07;;;;;;;7.24;97.48;100493.97;5010118;28;20188;-76
2023/05/05 03:00:31;;;;;;;0.00;0.00;;;;;;;7.23;98.16;100487.69;5011241;28;20211;-76
2023/05/05 03:03:12;;;;;;;0.87;0.87;;;;;;;7.20;98.83;100482.84;5012006;28;20180;-76
2023/05/05 03:05:52;;;;;;;1.23;1.13;;;;;;;7.18;98.92;100484.25;5011792;28;20212;-76
2023/05/05 03:08:41;;;;;;;0.13;0.13;;;;;;;7.19;99.32;100483.13;5012044;28;20184;-76
2023/05/05 03:11:15;;;;;;;0.00;0.00;;;;;;;7.13;99.26;100482.41;5012096;28;20678;-76
2023/05/05 03:13:42;;;;;;;1.70;1.70;;;;;;;7.01;100.00;100468.38;5003545;28;20223;-76
2023/05/05 03:16:09;;;;;;;0.40;0.40;;;;;;;7.07;100.00;100478.09;5018894;28;20188;-76
2023/05/05 03:18:36;;;;;;;0.20;0.20;;;;;;;7.04;100.00;100468.63;5014671;28;20624;-76
2023/05/05 03:21:07;;;;;;;0.57;0.57;;;;;;;7.06;100.00;100474.56;5011073;28;20236;-76
2023/05/05 03:23:33;;;;;;;0.00;0.00;;;;;;;7.09;100.00;100470.50;5010950;28;20608;-76
2023/05/05 03:25:58;;;;;;;0.00;0.00;;;;;;;7.15;100.00;100475.56;5010563;28;20181;-76
2023/05/05 03:28:24;;;;;;;0.27;0.27;;;;;;;7.20;100.00;100484.75;5010843;28;20188;-77
2023/05/05 03:30:49;;;;;;;0.37;0.37;;;;;;;7.20;100.00;100474.69;5010967;28;20208;-77
2023/05/05 03:33:15;;;;;;;0.87;0.40;;;;;;;7.20;100.00;100474.69;5010705;28;20232;-76
2023/05/05 03:35:40;;;;;;;0.00;0.00;;;;;;;7.15;100.00;100474.75;5010607;28;20239;-77
2023/05/05 03:38:05;;;;;;;0.00;0.00;;;;;;;7.20;100.00;100482.84;5010956;28;20242;-77
2023/05/05 03:40:31;;;;;;;0.00;0.00;;;;;;;7.22;100.00;100480.66;5010671;28;20195;-76
2023/05/05 03:42:56;;;;;;;0.40;0.20;;;;;;;7.21;100.00;100475.50;5010828;28;20264;-76
2023/05/05 03:45:21;;;;;;;0.00;0.00;;;;;;;7.01;100.00;100471.91;5013555;28;20188;-76
2023/05/05 03:47:47;;;;;;;0.13;0.13;;;;;;;6.97;100.00;100473.59;5014616;28;20188;-76
2023/05/05 03:50:12;;;;;;;0.53;0.53;;;;;;;6.94;100.00;100474.13;5014373;28;20196;-76
2023/05/05 03:52:38;;;;;;;0.20;0.20;;;;;;;6.77;100.00;100462.91;5014509;28;20215;-76
2023/05/05 03:55:03;;;;;;;0.03;0.03;;;;;;;6.72;100.00;100457.53;5012730;28;20193;-76
2023/05/05 03:57:29;;;;;;;0.00;0.00;;;;;;;6.76;100.00;100461.28;5013066;28;20226;-76
2023/05/05 03:59:54;;;;;;;0.40;0.37;;;;;;;6.64;100.00;100464.38;5013409;28;20189;-76
2023/05/05 04:02:20;;;;;;;0.00;0.00;;;;;;;6.71;100.00;100469.47;5013079;28;20691;-76
2023/05/05 04:04:45;;;;;;;0.00;0.00;;;;;;;6.79;100.00;100472.38;5012649;28;20192;-76
2023/05/05 04:07:10;;;;;;;0.00;0.00;;;;;;;6.75;100.00;100476.75;5014383;28;20642;-76
2023/05/05 04:09:43;;;;;;;0.07;0.07;;;;;;;6.80;100.00;100484.06;5014333;28;20195;-76
2023/05/05 04:12:08;;;;;;;0.00;0.00;;;;;;;6.78;100.00;100481.63;5012766;28;20213;-76
2023/05/05 04:14:33;;;;;;;0.53;0.53;;;;;;;6.71;100.00;100470.28;5013647;28;20263;-76
2023/05/05 04:16:59;;;;;;;0.10;0.07;;;;;;;6.62;100.00;100466.56;5014142;28;20217;-76
2023/05/05 04:19:24;;;;;;;0.43;0.43;;;;;;;6.57;100.00;100462.00;5013987;28;20237;-76
2023/05/05 04:21:50;;;;;;;0.07;0.07;;;;;;;6.57;100.00;100466.59;5014239;28;20207;-76
2023/05/05 04:24:18;;;;;;;0.00;0.00;;;;;;;6.68;100.00;100468.16;5013552;28;20669;-76
2023/05/05 04:26:43;;;;;;;2.80;0.83;;;;;;;6.80;100.00;100476.75;5014642;28;20176;-76
2023/05/05 04:29:08;;;;;;;0.10;0.10;;;;;;;6.89;100.00;100487.78;5015289;28;20245;-76
2023/05/05 04:31:34;;;;;;;0.40;0.40;;;;;;;6.95;100.00;100492.09;5014906;28;20300;-76
2023/05/05 04:33:59;;;;;;;0.13;0.13;;;;;;;6.92;100.00;100486.38;5012483;28;20215;-76
2023/05/05 04:36:24;;;;;;;0.73;0.70;;;;;;;6.88;100.00;100485.34;5013340;28;20662;-76
2023/05/05 04:38:50;;;;;;;0.37;0.37;;;;;;;6.87;100.00;100479.09;5013922;28;20190;-76
2023/05/05 04:41:15;;;;;;;0.37;0.37;;;;;;;6.88;100.00;100477.19;5012148;28;20270;-76
2023/05/05 04:43:40;;;;;;;1.07;1.00;;;;;;;6.97;100.00;100472.78;5013590;28;20596;-76
2023/05/05 04:46:06;;;;;;;0.30;0.30;;;;;;;7.05;100.00;100464.78;5013059;28;20176;-76
2023/05/05 04:48:31;;;;;;;0.50;0.50;;;;;;;7.22;100.00;100485.28;5013522;28;20221;-76
2023/05/05 04:50:56;;;;;;;0.00;0.00;;;;;;;7.33;100.00;100490.31;5013373;28;20204;-76
2023/05/05 04:53:22;;;;;;;0.40;0.40;;;;;;;7.36;100.00;100492.44;5012141;28;20212;-76
2023/05/05 04:55:47;;;;;;;1.80;0.87;;;;;;;7.36;100.00;100486.22;5011845;28;20627;-76
2023/05/05 04:58:12;;;;;;;0.10;0.10;;;;;;;7.46;100.00;100497.78;5013327;28;20191;-76
2023/05/05 05:00:38;;;;;;;0.23;0.23;;;;;;;7.58;100.00;100493.84;5013156;28;20251;-77
2023/05/05 05:03:03;;;;;;;0.10;0.10;;;;;;;7.74;99.19;100487.94;5013473;28;20682;-77
2023/05/05 05:05:29;;;;;;;1.13;1.13;;;;;;;7.98;98.25;100487.91;5012777;28;20231;-76
2023/05/05 05:07:54;;;;;;;3.90;2.10;;;;;;;8.20;97.30;100490.03;5011930;28;20647;-76
2023/05/05 05:10:20;;;;;;;1.43;1.37;;;;;;;8.41;95.11;100484.34;5012870;28;20188;-77
2023/05/05 05:12:46;;;;;;;1.13;1.13;;;;;;;8.60;94.40;100485.91;5012992;28;20240;-77
2023/05/05 05:15:12;;;;;;;0.30;0.30;;;;;;;8.80;93.82;100494.84;5012494;28;20184;-76
2023/05/05 05:17:37;;;;;;;0.63;0.63;;;;;;;8.92;92.36;100484.28;5013019;28;20552;-76
2023/05/05 05:20:03;;;;;;;0.80;0.53;;;;;;;8.98;91.23;100480.38;5012992;28;20192;-77
2023/05/05 05:22:29;;;;;;;0.37;0.37;;;;;;;9.00;90.27;100489.06;5012809;28;20270;-76
2023/05/05 05:24:54;;;;;;;1.50;1.40;;;;;;;8.99;89.76;100482.00;5011195;28;20642;-76
2023/05/05 05:27:20;;;;;;;0.50;0.50;;;;;;;8.90;89.51;100481.88;5012603;28;20200;-76
2023/05/05 05:29:45;;;;;;;1.40;0.60;;;;;;;8.80;89.59;100473.06;5012774;28;20189;-76
2023/05/05 05:32:10;;;;;;;2.53;0.80;;;;;;;8.74;90.71;100476.97;5012448;28;20242;-76
2023/05/05 05:34:36;;;;;;;0.63;0.63;;;;;;;8.81;91.09;100480.94;5012352;28;20682;-76
2023/05/05 05:37:01;;;;;;;0.73;0.73;;;;;;;8.85;91.43;100484.69;5013225;28;20184;-77
2023/05/05 05:39:27;;;;;;;0.00;0.00;;;;;;;8.92;92.19;100473.38;5012638;28;20557;-76
2023/05/05 05:41:52;;;;;;;0.00;0.00;;;;;;;9.00;92.35;100486.34;5012292;28;20218;-77
2023/05/05 05:44:17;;;;;;;0.20;0.20;;;;;;;9.15;93.14;100493.44;5012730;28;20195;-79
2023/05/05 05:46:43;;;;;;;0.43;0.20;;;;;;;9.33;93.55;100500.72;5010719;28;20188;-76
2023/05/05 05:49:08;;;;;;;0.10;0.10;;;;;;;9.44;93.43;100491.25;5012421;28;20717;-76
2023/05/05 05:51:33;;;;;;;0.00;0.00;;;;;;;9.61;92.66;100508.91;5012336;28;20275;-76
2023/05/05 05:53:58;;;;;;;1.50;1.30;;;;;;;9.71;90.58;100501.34;5013450;28;20651;-76
2023/05/05 05:56:24;;;;;;;0.57;0.17;;;;;;;9.88;88.55;100497.19;5011267;28;20223;-76
2023/05/05 05:58:49;;;;;;;0.20;0.20;;;;;;;10.05;87.76;100495.44;5013057;28;20197;-76
2023/05/05 06:01:14;;;;;;;4.53;1.67;;;;;;;10.19;86.10;100500.06;5004654;28;20232;-76
2023/05/05 06:03:40;;;;;;;0.73;0.73;;;;;;;10.36;85.90;100497.50;5012809;28;20205;-76
2023/05/05 06:06:06;;;;;;;0.97;0.63;;;;;;;10.61;84.58;100490.63;5012381;28;20239;-76
2023/05/05 06:08:31;;;;;;;2.50;2.33;;;;;;;10.78;81.77;100477.09;5012759;28;20242;-76
2023/05/05 06:10:57;;;;;;;1.27;1.27;;;;;;;10.85;80.31;100479.38;5015129;28;20204;-75
2023/05/05 06:13:22;;;;;;;1.07;0.97;;;;;;;10.99;78.62;100477.38;5012641;28;20308;-76
2023/05/05 06:15:47;;;;;;;1.03;1.03;;;;;;;11.20;77.67;100481.19;5012411;28;20218;-75
2023/05/05 06:18:13;;;;;;;3.07;1.40;;;;;;;11.14;77.11;100495.28;5011702;28;20207;-75
2023/05/05 06:20:39;;;;;;;1.10;0.83;;;;;;;11.02;76.71;100485.78;5011685;28;20228;-76
2023/05/05 06:23:05;;;;;;;1.77;1.67;;;;;;;10.93;77.46;100492.28;5011603;28;20650;-76
2023/05/05 06:25:30;;;;;;;0.37;0.37;;;;;;;10.87;78.39;100496.28;5008206;28;20192;-75
2023/05/05 06:27:55;;;;;;;0.77;0.77;;;;;;;10.94;79.20;100499.38;4998655;28;20609;-76
2023/05/05 06:30:21;;;;;;;0.93;0.77;;;;;;;11.01;80.09;100503.28;5011552;28;20275;-76
2023/05/05 06:32:46;;;;;;;3.73;2.57;;;;;;;10.88;79.43;100495.16;5010152;28;20629;-75
2023/05/05 06:35:11;;;;;;;0.73;0.73;;;;;;;10.89;79.78;100503.06;5011220;28;20663;-76
2023/05/05 06:37:37;;;;;;;0.77;0.53;;;;;;;10.90;80.12;100496.47;5020056;28;20168;-76
2023/05/05 06:40:02;;;;;;;0.40;0.40;;;;;;;10.96;80.83;100502.59;5031540;28;20192;-76
2023/05/05 06:42:29;;;;;;;0.53;0.53;;;;;;;10.99;79.84;100504.69;5024500;28;20258;-76
2023/05/05 06:44:55;;;;;;;0.77;0.70;;;;;;;10.91;79.36;100494.53;5009668;28;20184;-76
2023/05/05 06:47:20;;;;;;;4.53;0.43;;;;;;;10.89;79.54;100491.31;5010251;28;20191;-76
2023/05/05 06:49:46;;;;;;;0.00;0.00;;;;;;;10.98;79.68;100486.69;5003561;28;20295;-76
2023/05/05 06:52:11;;;;;;;0.20;0.20;;;;;;;11.02;79.18;100479.50;5011116;28;20326;-76
2023/05/05 06:54:36;;;;;;;0.17;0.17;;;;;;;11.05;78.92;100487.06;5009549;28;20306;-75
2023/05/05 06:57:02;;;;;;;0.10;0.10;;;;;;;11.13;79.88;100489.03;5011329;28;20200;-76
2023/05/05 06:59:27;;;;;;;1.33;0.97;;;;;;;11.20;79.92;100494.88;5010892;28;20235;-76
2023/05/05 07:01:52;;;;;;;0.37;0.37;;;;;;;11.16;79.40;100490.34;5011141;28;20201;-76
2023/05/05 07:04:18;;;;;;;0.10;0.10;;;;;;;11.20;79.23;100507.72;5010984;28;20230;-76
2023/05/05 07:06:43;;;;;;;0.80;0.77;;;;;;;11.23;79.39;100515.31;5010820;28;20279;-76
2023/05/05 07:09:08;;;;;;;0.33;0.33;;;;;;;11.26;79.15;100506.47;5010909;28;20188;-76
2023/05/05 07:11:33;;;;;;;1.20;1.10;;;;;;;11.38;78.81;100511.34;5010999;28;20222;-76
2023/05/05 07:13:59;;;;;;;1.50;1.33;;;;;;;11.56;78.64;100515.75;5010807;28;20208;-76
2023/05/05 07:16:25;;;;;;;1.73;0.97;;;;;;;11.72;77.48;100502.50;5010648;28;20230;-76
2023/05/05 07:18:51;;;;;;;0.90;0.90;;;;;;;11.75;77.25;100502.66;5013022;28;20196;-76
2023/05/05 07:21:16;;;;;;;1.20;1.20;;;;;;;11.87;76.86;100502.88;5014704;28;20293;-76
2023/05/05 07:23:42;;;;;;;0.63;0.63;;;;;;;11.99;76.47;100491.28;5016344;28;20215;-76
2023/05/05 07:26:07;;;;;;;1.70;0.83;;;;;;;12.22;76.27;100494.72;5016553;28;20180;-76
2023/05/05 07:28:33;;;;;;;2.03;1.87;;;;;;;12.39;74.85;100481.00;5017067;28;20226;-76
2023/05/05 07:30:58;;;;;;;0.40;0.40;;;;;;;12.51;75.14;100488.59;5016722;28;20480;-75
2023/05/05 07:33:24;;;;;;;1.33;1.13;;;;;;;12.73;73.66;100480.19;5017635;28;20215;-75
2023/05/05 07:35:49;;;;;;;3.10;2.90;;;;;;;12.77;72.90;100477.59;5017812;28;20180;-76
2023/05/05 07:38:14;;;;;;;2.70;1.93;;;;;;;13.04;74.22;100495.63;5016643;28;20176;-76
2023/05/05 07:40:40;;;;;;;1.17;1.17;;;;;;;13.26;73.48;100492.66;5016714;28;20184;-76
2023/05/05 07:43:05;;;;;;;1.73;1.60;;;;;;;13.64;72.60;100486.38;5016058;28;20188;-76
2023/05/05 07:45:30;;;;;;;2.73;1.90;;;;;;;13.55;71.13;100471.88;5017008;28;20187;-76
2023/05/05 07:47:56;;;;;;;1.80;1.70;;;;;;;13.56;71.42;100481.72;5017367;28;20769;-76
2023/05/05 07:50:22;;;;;;;2.47;2.07;;;;;;;13.59;71.50;100475.56;5032348;28;20659;-76
2023/05/05 07:52:47;;;;;;;3.03;1.60;;;;;;;13.60;70.58;100464.28;5018178;28;20262;-76
2023/05/05 07:55:12;;;;;;;1.47;1.37;;;;;;;13.72;70.44;100463.56;5033568;28;20644;-79
2023/05/05 07:57:38;;;;;;;2.83;2.63;;;;;;;13.71;70.42;100483.91;5017607;28;20180;-77
2023/05/05 08:00:04;;;;;;;2.70;2.50;;;;;;;13.66;70.59;100476.69;5017840;28;20185;-76
2023/05/05 08:02:29;;;;;;;3.43;3.23;;;;;;;13.87;69.78;100478.66;5032883;28;20198;-80
2023/05/05 08:04:54;;;;;;;1.13;0.73;;;;;;;14.12;69.12;100485.94;5018541;28;20199;-76
2023/05/05 08:07:20;;;;;;;2.30;0.87;;;;;;;14.40;69.50;100485.41;5019052;28;20271;-77
2023/05/05 08:09:45;;;;;;;0.73;0.73;;;;;;;14.27;68.61;100481.78;5019589;28;20184;-80
2023/05/05 08:12:11;;;;;;;0.50;0.50;;;;;;;14.41;69.08;100489.75;5019919;28;20208;-81
2023/05/05 08:14:39;;;;;;;1.87;1.77;;;;;;;14.30;68.58;100494.84;5016740;28;20173;-81
2023/05/05 08:17:04;;;;;;;1.20;1.17;;;;;;;14.57;69.18;100510.81;5005869;28;20215;-77
2023/05/05 08:19:29;;;;;;;0.30;0.30;;;;;;;14.63;68.52;100508.69;5001054;28;20212;-77
2023/05/05 08:21:55;;;;;;;2.03;1.50;;;;;;;14.56;67.74;100497.41;5016638;28;20232;-77
2023/05/05 08:24:20;;;;;;;1.63;1.53;;;;;;;14.52;67.67;100489.03;5015129;28;20250;-76
2023/05/05 08:26:45;;;;;;;0.00;0.00;;;;;;;14.72;69.28;100512.16;5016473;28;20662;-77
2023/05/05 08:29:11;;;;;;;0.53;0.53;;;;;;;14.74;67.90;100492.56;5016782;28;20176;-76
2023/05/05 08:31:36;;;;;;;2.13;1.30;;;;;;;14.57;67.21;100499.81;5011401;28;20582;-77
2023/05/05 08:34:04;;;;;;;0.50;0.50;;;;;;;14.61;67.62;100516.47;5014095;28;20212;-77
2023/05/05 08:36:29;;;;;;;0.00;0.00;;;;;;;14.65;68.38;100522.09;5013150;28;20183;-77
2023/05/05 08:38:55;;;;;;;0.17;0.17;;;;;;;14.61;67.67;100527.47;5013730;28;20184;-77
2023/05/05 08:41:20;;;;;;;0.77;0.50;;;;;;;14.47;67.36;100527.75;5013467;28;20716;-77
2023/05/05 08:43:48;;;;;;;0.10;0.10;;;;;;;14.65;68.04;100539.41;5013798;28;20185;-77
2023/05/05 08:46:13;;;;;;;0.00;0.00;;;;;;;14.69;68.00;100534.84;5028549;28;20274;-77
2023/05/05 08:48:41;;;;;;;0.00;0.00;;;;;;;14.70;67.79;100530.13;5013656;28;20219;-77
2023/05/05 08:51:18;;;;;;;0.60;0.60;;;;;;;14.55;67.15;100521.34;5013318;28;20204;-76
2023/05/05 08:53:57;;;;;;;1.13;1.03;;;;;;;14.54;67.77;100529.94;5013370;28;20215;-77
2023/05/05 08:56:26;;;;;;;2.00;1.80;;;;;;;14.49;67.75;100524.66;5012691;28;20203;-76
2023/05/05 08:58:52;;;;;;;0.43;0.43;;;;;;;14.51;67.53;100527.88;5028645;28;20212;-76
2023/05/05 09:01:17;;;;;;;0.63;0.43;;;;;;;14.62;67.58;100536.53;5013006;28;20197;-77
2023/05/05 09:03:44;;;;;;;0.20;0.20;;;;;;;14.74;67.64;100540.13;5013331;28;20187;-77
2023/05/05 09:06:10;;;;;;;0.40;0.40;;;;;;;14.95;67.82;100536.56;5012856;28;20181;-77
2023/05/05 09:08:36;;;;;;;0.63;0.63;;;;;;;14.91;66.80;100541.94;5013218;28;20275;-77
2023/05/05 09:11:01;;;;;;;1.37;1.33;;;;;;;15.04;67.65;100551.00;5011699;28;20208;-77
2023/05/05 09:13:28;;;;;;;0.07;0.07;;;;;;;15.16;69.64;100556.56;5011508;28;20200;-77
2023/05/05 09:15:54;;;;;;;2.30;2.10;;;;;;;14.96;69.40;100529.91;5004596;28;20188;-76
2023/05/05 09:18:19;;;;;;;1.50;1.40;;;;;;;14.98;70.19;100535.88;5012751;28;20226;-76
2023/05/05 09:20:44;;;;;;;1.03;0.87;;;;;;;15.12;71.12;100539.94;5012258;28;20195;-77
2023/05/05 09:23:13;;;;;;;2.87;1.53;;;;;;;14.97;70.23;100529.56;5012983;28;20184;-76
2023/05/05 09:26:06;;;;;;;0.40;0.40;;;;;;;15.00;70.73;100526.13;5012331;28;20184;-76
2023/05/05 09:28:32;;;;;;;0.60;0.50;;;;;;;15.12;71.75;100537.19;5012623;28;20176;-77
2023/05/05 09:31:12;;;;;;;2.03;1.83;;;;;;;15.13;71.48;100535.22;5012536;28;20200;-77
2023/05/05 09:33:38;;;;;;;1.20;1.10;;;;;;;15.12;71.14;100522.63;5012508;28;20554;-77
2023/05/05 09:36:03;;;;;;;0.93;0.93;;;;;;;15.11;71.33;100516.31;5012315;28;20195;-77
2023/05/05 09:38:28;;;;;;;0.07;0.07;;;;;;;15.09;71.91;100520.53;5012576;28;20176;-77
2023/05/05 09:40:54;;;;;;;2.20;2.00;;;;;;;14.95;71.43;100507.09;5012271;28;20246;-76
2023/05/05 09:43:21;;;;;;;3.73;1.10;;;;;;;14.88;72.11;100510.38;5012068;28;20264;-76
2023/05/05 09:45:50;;;;;;;0.10;0.10;;;;;;;14.94;73.04;100530.25;5011955;28;20180;-76
2023/05/05 09:48:40;;;;;;;0.00;0.00;;;;;;;15.14;75.33;100554.16;5011082;28;20180;-76
2023/05/05 09:51:06;;;;;;;0.00;0.00;;;;;;;15.31;77.38;100560.63;5012303;28;20200;-77
2023/05/05 09:53:39;;;;;;;0.00;0.00;;;;;;;15.24;77.21;100552.13;5011950;28;20258;-77
2023/05/05 09:56:05;;;;;;;2.00;1.63;;;;;;;15.08;76.71;100541.75;5011405;28;20235;-77
2023/05/05 09:58:31;;;;;;;0.10;0.10;;;;;;;14.96;77.56;100532.66;5012362;28;20173;-76
2023/05/05 10:00:57;;;;;;;0.00;0.00;;;;;;;15.00;78.56;100533.56;5013990;28;20573;-77
2023/05/05 10:03:24;;;;;;;0.83;0.83;;;;;;;14.98;78.50;100533.91;5013860;28;20227;-77
2023/05/05 10:05:50;;;;;;;0.13;0.13;;;;;;;15.07;78.82;100528.34;5027389;28;20188;-76
2023/05/05 10:08:21;;;;;;;2.07;1.97;;;;;;;15.08;77.39;100513.44;5012053;28;20192;-77
2023/05/05 10:10:53;;;;;;;0.83;0.83;;;;;;;15.08;76.95;100513.44;5011643;28;20184;-77
2023/05/05 10:13:20;;;;;;;1.17;1.07;;;;;;;15.00;76.29;100514.31;5011701;28;20204;-76
2023/05/05 10:15:50;;;;;;;2.00;1.90;;;;;;;15.15;76.06;100524.69;5011436;28;20195;-76
2023/05/05 10:18:20;;;;;;;1.37;1.33;;;;;;;15.32;76.74;100530.00;5011945;28;20188;-76
2023/05/05 10:20:50;;;;;;;23.10;2.17;;;;;;;15.15;76.61;100522.72;5011658;28;20267;-77
2023/05/05 10:23:18;;;;;;;1.70;1.63;;;;;;;15.38;77.29;100538.84;5012225;28;20207;-76
2023/05/05 10:25:50;;;;;;;5.97;5.60;;;;;;;15.35;76.35;100543.09;5010131;28;20181;-77
2023/05/05 10:28:24;;;;;;;0.30;0.30;;;;;;;15.46;76.08;100554.44;5010534;28;20195;-77
2023/05/05 10:30:53;;;;;;;0.00;0.00;;;;;;;15.56;75.42;100561.47;5026767;28;20184;-76
2023/05/05 10:33:29;;;;;;;0.77;0.77;;;;;;;15.78;75.91;100561.09;5011549;28;20545;-76
2023/05/05 10:35:59;;;;;;;0.00;0.00;;;;;;;15.89;75.20;100561.41;5013882;28;20186;-78
2023/05/05 10:38:30;;;;;;;0.53;0.53;;;;;;;15.88;74.98;100557.84;5010804;28;20677;-77
2023/05/05 10:40:57;;;;;;;0.33;0.33;;;;;;;15.96;74.17;100565.22;5011418;28;20287;-76
2023/05/05 10:43:23;;;;;;;0.00;0.00;;;;;;;15.83;74.36;100558.09;5011169;28;20189;-76
2023/05/05 10:45:49;;;;;;;0.40;0.40;;;;;;;15.84;74.68;100564.41;5010997;28;20710;-76
2023/05/05 10:48:23;;;;;;;0.00;0.00;;;;;;;15.92;73.39;100566.25;5011329;28;20599;-77
2023/05/05 10:51:13;;;;;;;0.00;0.00;;;;;;;15.94;73.70;100563.97;5011269;28;20223;-76
2023/05/05 10:53:53;;;;;;;0.00;0.00;;;;;;;15.78;73.87;100550.06;5011178;28;20208;-79
2023/05/05 10:56:33;;;;;;;0.10;0.00;;;;;;;15.46;74.42;100541.50;5018391;28;20200;-79
2023/05/05 10:58:59;;;;;;;0.03;0.03;;;;;;;15.37;76.31;100551.81;5014204;28;20203;-79
2023/05/05 11:01:34;;;;;;;0.00;0.00;;;;;;;15.42;77.46;100562.59;5010430;28;20211;-76
2023/05/05 11:04:20;;;;;;;0.53;0.53;;;;;;;15.52;77.85;100560.56;5011366;28;20596;-80
2023/05/05 11:07:07;;;;;;;0.67;0.67;;;;;;;15.60;79.32;100562.44;5013806;28;20243;-79
2023/05/05 11:09:40;;;;;;;0.00;0.00;;;;;;;15.61;80.34;100562.09;5011953;28;20231;-75
2023/05/05 11:12:06;;;;;;;0.47;0.47;;;;;;;15.60;82.44;100560.47;5011083;28;20561;-76
2023/05/05 11:14:32;;;;;;;0.20;0.20;;;;;;;15.55;82.70;100551.63;5010634;28;20651;-75
2023/05/05 11:16:57;;;;;;;1.63;1.63;;;;;;;15.41;82.47;100541.72;5011486;28;20210;-76
2023/05/05 11:19:41;;;;;;;0.20;0.20;;;;;;;15.19;85.63;100533.88;5011108;28;20526;-76
2023/05/05 11:22:06;;;;;;;0.10;0.10;;;;;;;15.00;87.62;100536.34;5010680;28;20627;-76
2023/05/05 11:24:32;;;;;;;0.00;0.00;;;;;;;15.18;90.19;100537.75;5004293;28;20196;-76
2023/05/05 11:26:57;;;;;;;0.00;0.00;;;;;;;15.31;91.96;100549.59;5026059;28;20589;-76
2023/05/05 11:29:23;;;;;;;1.03;0.97;;;;;;;15.37;91.86;100551.00;5010744;28;20177;-76
2023/05/05 11:32:16;;;;;;;0.00;0.00;;;;;;;15.35;90.72;100556.06;5010803;28;20208;-75